Time;durP1;ratioP1;P1;durP2;ratioP2;P2;SDS_P1;SDS_P2;PMS_P1;PMS_P2;Temp;Humidity;BMP_temperature;BMP_pressure;BME280_temperature;BME280_humidity;BME280_pressure;Samples;Min_cycle;Max_cycle;Signal;HPM_P1;HPM_P2
2021/08/13 00:01:23;;;;;;;7.33;3.17;;;;;;;19.86;100.00;101078.88;1749891;82;20870;-91
2021/08/13 00:03:51;;;;;;;7.12;2.83;;;;;;;19.84;100.00;101082.47;1739553;82;20969;-86
2021/08/13 00:06:17;;;;;;;6.95;3.22;;;;;;;19.81;100.00;101081.16;1645302;87;21526;-87
2021/08/13 00:08:42;;;;;;;6.35;3.08;;;;;;;19.79;100.00;101079.29;1645306;87;20907;-88
2021/08/13 00:11:08;;;;;;;6.65;3.05;;;;;;;19.74;100.00;101082.17;1645298;85;20979;-86
2021/08/13 00:13:34;;;;;;;12.37;3.40;;;;;;;19.66;100.00;101079.60;1645230;87;20974;-85
2021/08/13 00:16:00;;;;;;;7.60;2.98;;;;;;;19.65;100.00;101081.29;1652148;85;20911;-86
2021/08/13 00:18:26;;;;;;;5.72;2.70;;;;;;;19.58;100.00;101089.86;1677867;85;21081;-85
2021/08/13 00:20:52;;;;;;;7.60;3.20;;;;;;;19.51;100.00;101098.50;1677721;85;21506;-87
2021/08/13 00:23:18;;;;;;;7.10;3.22;;;;;;;19.47;100.00;101093.94;1677776;85;20959;-85
2021/08/13 00:25:44;;;;;;;9.73;3.47;;;;;;;19.42;100.00;101088.05;1677764;85;21541;-87
2021/08/13 00:28:10;;;;;;;8.05;3.15;;;;;;;19.40;100.00;101098.47;1677914;85;20997;-87
2021/08/13 00:30:36;;;;;;;9.15;3.37;;;;;;;19.37;100.00;101098.28;1677745;85;21340;-85
2021/08/13 00:33:03;;;;;;;7.25;3.33;;;;;;;19.33;100.00;101095.36;1677777;85;21022;-86
2021/08/13 00:35:29;;;;;;;7.20;3.27;;;;;;;19.32;100.00;101098.37;1677754;85;21062;-85
2021/08/13 00:37:56;;;;;;;7.20;3.00;;;;;;;19.28;100.00;101096.27;1677830;85;20934;-86
2021/08/13 00:40:22;;;;;;;6.22;3.12;;;;;;;19.28;100.00;101103.09;1677792;85;20950;-86
2021/08/13 00:42:48;;;;;;;7.80;3.10;;;;;;;19.25;100.00;101102.91;1677827;85;21193;-87
2021/08/13 00:45:14;;;;;;;8.18;3.77;;;;;;;19.23;100.00;101102.39;1677577;85;21059;-89
2021/08/13 00:47:40;;;;;;;9.35;2.87;;;;;;;19.22;100.00;101103.52;1677885;85;21002;-86
2021/08/13 00:50:08;;;;;;;8.70;3.42;;;;;;;19.22;100.00;101105.69;1677806;85;20851;-87
2021/08/13 00:52:34;;;;;;;10.18;3.47;;;;;;;19.19;100.00;101108.22;1661707;85;21595;-91
2021/08/13 00:55:00;;;;;;;12.78;4.20;;;;;;;19.14;100.00;101113.22;1641916;87;21087;-87
2021/08/13 00:57:26;;;;;;;16.35;4.33;;;;;;;19.11;100.00;101113.84;1641845;87;20919;-88
2021/08/13 00:59:52;;;;;;;7.97;3.58;;;;;;;19.08;100.00;101107.61;1641620;87;21289;-87
2021/08/13 01:02:17;;;;;;;12.78;3.55;;;;;;;19.08;100.00;101112.28;1666321;80;20919;-87
2021/08/13 01:04:44;;;;;;;9.73;3.62;;;;;;;19.05;100.00;101115.05;1794186;79;21723;-88
2021/08/13 01:07:10;;;;;;;9.53;4.03;;;;;;;19.04;100.00;101117.55;1794141;79;21452;-88
2021/08/13 01:09:38;;;;;;;7.20;3.55;;;;;;;19.02;100.00;101117.83;1794116;79;20976;-86
2021/08/13 01:12:22;;;;;;;10.72;4.03;;;;;;;19.03;100.00;101118.64;1793889;79;20971;-87
2021/08/13 01:15:05;;;;;;;9.80;4.15;;;;;;;19.01;100.00;101122.25;1793793;79;21060;-86
2021/08/13 01:17:44;;;;;;;12.03;4.33;;;;;;;18.98;100.00;101122.86;1724712;83;21526;-86
2021/08/13 01:20:19;;;;;;;7.55;3.72;;;;;;;18.96;100.00;101120.41;1721116;83;21870;-85
2021/08/13 01:23:02;;;;;;;12.35;4.03;;;;;;;18.96;100.00;101133.27;1664305;86;21454;-85
2021/08/13 01:25:32;;;;;;;10.10;4.08;;;;;;;18.92;100.00;101134.44;1666345;86;21053;-86
2021/08/13 01:28:02;;;;;;;11.40;3.62;;;;;;;18.89;100.00;101135.05;1666726;86;21569;-86
2021/08/13 01:30:30;;;;;;;8.88;3.60;;;;;;;18.86;100.00;101134.28;1621437;88;22412;-86
2021/08/13 01:33:12;;;;;;;7.85;4.00;;;;;;;18.85;100.00;101135.37;1623026;88;21995;-87
2021/08/13 01:35:45;;;;;;;9.10;3.83;;;;;;;18.82;100.00;101131.35;1622089;87;21687;-84
2021/08/13 01:38:17;;;;;;;;;;;;;;;18.80;100.00;101128.67;1625002;88;21658;-86
2021/08/13 01:40:47;;;;;;;8.05;3.50;;;;;;;18.76;100.00;101133.09;1636240;87;20490;-84
2021/08/13 01:43:21;;;;;;;8.05;3.67;;;;;;;18.73;100.00;101134.50;1622541;88;21119;-85
2021/08/13 01:45:48;;;;;;;8.40;3.52;;;;;;;18.71;100.00;101138.64;1622550;88;21353;-85
2021/08/13 01:48:15;;;;;;;7.97;3.35;;;;;;;18.68;100.00;101131.02;1600920;88;21072;-86
2021/08/13 01:50:42;;;;;;;7.50;3.85;;;;;;;18.63;100.00;101131.94;1622467;88;21063;-85
2021/08/13 01:53:09;;;;;;;13.40;3.40;;;;;;;18.60;100.00;101140.17;1599556;88;21036;-84
2021/08/13 01:55:36;;;;;;;7.92;3.72;;;;;;;18.56;100.00;101147.36;1641467;87;21668;-82
2021/08/13 01:58:03;;;;;;;5.70;3.00;;;;;;;18.53;100.00;101142.50;1673676;85;21145;-85
2021/08/13 02:00:30;;;;;;;6.47;3.10;;;;;;;18.51;100.00;101146.07;1673567;85;21567;-85
2021/08/13 02:02:59;;;;;;;16.87;4.25;;;;;;;18.48;100.00;101150.77;1673306;85;20994;-85
2021/08/13 02:05:30;;;;;;;5.53;2.95;;;;;;;18.44;100.00;101146.19;1673291;85;21049;-87
2021/08/13 02:08:04;;;;;;;6.55;3.10;;;;;;;18.42;100.00;101145.70;1669370;85;21005;-86
2021/08/13 02:10:32;;;;;;;6.15;2.92;;;;;;;18.38;100.00;101149.55;1650914;85;21903;-85
2021/08/13 02:12:58;;;;;;;7.60;3.12;;;;;;;18.35;100.00;101159.70;1673282;85;21033;-85
2021/08/13 02:15:24;;;;;;;8.03;3.27;;;;;;;18.34;100.00;101162.19;1673387;85;21002;-85
2021/08/13 02:18:22;;;;;;;7.65;3.12;;;;;;;18.30;100.00;101169.36;1673304;85;21127;-87
2021/08/13 02:20:51;;;;;;;13.40;3.60;;;;;;;18.26;100.00;101162.30;1646427;87;21134;-86
2021/08/13 02:23:19;;;;;;;6.83;3.27;;;;;;;18.23;100.00;101164.82;1662579;86;21897;-86
2021/08/13 02:25:45;;;;;;;7.33;3.20;;;;;;;18.21;100.00;101167.86;1644190;87;21075;-86
2021/08/13 02:28:11;;;;;;;9.95;3.52;;;;;;;18.19;100.00;101171.99;1663324;86;21453;-86
2021/08/13 02:30:36;;;;;;;8.28;3.37;;;;;;;18.16;100.00;101172.03;1666586;86;20966;-90
2021/08/13 02:33:04;;;;;;;6.72;3.20;;;;;;;18.14;100.00;101166.05;1666597;86;21002;-87
2021/08/13 02:35:32;;;;;;;10.93;3.15;;;;;;;18.11;100.00;101178.91;1666337;86;21004;-88
2021/08/13 02:38:14;;;;;;;6.55;3.17;;;;;;;18.08;100.00;101184.41;1666519;86;21005;-86
2021/08/13 02:40:58;;;;;;;8.78;3.02;;;;;;;18.07;100.00;101182.80;1666549;86;21014;-85
2021/08/13 02:43:49;;;;;;;5.65;3.02;;;;;;;18.07;100.00;101189.61;1666662;86;21606;-86
2021/08/13 02:46:19;;;;;;;10.45;3.50;;;;;;;18.08;100.00;101193.15;1616381;88;21141;-84
2021/08/13 02:48:47;;;;;;;6.62;3.17;;;;;;;18.09;100.00;101194.79;1616601;88;21164;-83
2021/08/13 02:53:47;;;;;;;7.35;3.45;;;;;;;18.09;100.00;101200.24;1545976;92;21091;-91
2021/08/13 02:56:17;;;;;;;6.22;3.50;;;;;;;18.09;100.00;101199.69;1547509;92;21642;-86
2021/08/13 02:58:53;;;;;;;7.47;3.27;;;;;;;18.10;100.00;101199.94;1547712;92;21711;-88
2021/08/13 03:01:23;;;;;;;11.45;3.77;;;;;;;18.14;100.00;101207.77;1547525;92;21175;-85
2021/08/13 03:03:52;;;;;;;7.03;3.60;;;;;;;18.17;100.00;101209.10;1547610;92;21103;-86
2021/08/13 03:06:20;;;;;;;7.80;3.12;;;;;;;18.20;100.00;101207.70;1547632;92;21082;-87
2021/08/13 03:08:47;;;;;;;8.03;3.17;;;;;;;18.23;100.00;101218.02;1547567;92;21087;-86
2021/08/13 03:11:17;;;;;;;8.60;3.50;;;;;;;18.26;100.00;101214.70;1547845;92;21107;-91
2021/08/13 03:13:44;;;;;;;8.95;3.47;;;;;;;18.30;100.00;101222.57;1548004;92;21731;-87
2021/08/13 03:16:12;;;;;;;11.60;3.85;;;;;;;18.36;100.00;101215.92;1553166;91;21089;-85
2021/08/13 03:18:40;;;;;;;5.97;3.20;;;;;;;18.39;100.00;101212.04;1562836;91;21082;-86
2021/08/13 03:21:09;;;;;;;6.42;3.22;;;;;;;18.44;100.00;101213.05;1542428;93;21104;-86
2021/08/13 03:23:37;;;;;;;7.20;3.37;;;;;;;18.48;100.00;101221.73;1537659;93;21166;-85
2021/08/13 03:26:05;;;;;;;12.60;3.70;;;;;;;18.54;100.00;101218.37;1542408;93;21555;-86
2021/08/13 03:28:31;;;;;;;9.75;3.47;;;;;;;18.58;100.00;101216.09;1542390;93;21525;-87
2021/08/13 03:30:57;;;;;;;10.13;3.35;;;;;;;18.63;100.00;101211.11;1537744;93;21048;-86
2021/08/13 03:33:23;;;;;;;6.65;3.37;;;;;;;18.69;100.00;101213.20;1542491;93;21087;-86
2021/08/13 03:35:50;;;;;;;8.20;3.22;;;;;;;18.72;100.00;101218.88;1542542;93;21627;-86
2021/08/13 03:38:16;;;;;;;11.75;3.40;;;;;;;18.78;100.00;101222.36;1537772;93;21184;-86
2021/08/13 03:40:42;;;;;;;7.08;3.45;;;;;;;18.83;100.00;101227.19;1539367;93;20992;-86
2021/08/13 03:43:08;;;;;;;7.92;3.72;;;;;;;18.88;100.00;101233.09;1580415;88;21042;-86
2021/08/13 03:45:34;;;;;;;9.23;3.25;;;;;;;18.92;100.00;101232.77;1582768;89;20972;-84
2021/08/13 03:48:00;;;;;;;8.18;3.75;;;;;;;19.05;100.00;101227.87;1624810;87;21019;-86
2021/08/13 03:50:26;;;;;;;6.25;3.22;;;;;;;19.26;100.00;101233.76;1671702;83;21946;-85
2021/08/13 03:52:52;;;;;;;9.05;3.20;;;;;;;19.54;100.00;101239.81;1721822;81;20888;-85
2021/08/13 03:55:18;;;;;;;6.45;3.30;;;;;;;19.96;100.00;101229.09;1753201;81;20983;-86
2021/08/13 03:57:43;;;;;;;9.93;3.30;;;;;;;20.30;100.00;101225.86;1753564;81;20885;-91
2021/08/13 04:00:12;;;;;;;11.75;3.75;;;;;;;20.61;100.00;101232.78;1726093;81;20940;-86
2021/08/13 04:02:38;;;;;;;9.53;3.52;;;;;;;21.22;100.00;101220.80;1753494;81;21123;-88
2021/08/13 04:05:05;;;;;;;12.58;3.95;;;;;;;22.11;100.00;101222.08;1753390;81;20870;-85
2021/08/13 04:07:31;;;;;;;8.50;3.33;;;;;;;22.97;100.00;101221.77;1753515;81;21067;-85
2021/08/13 04:09:57;;;;;;;7.08;3.27;;;;;;;23.65;100.00;101228.66;1753646;81;20984;-86
2021/08/13 04:12:23;;;;;;;7.42;3.30;;;;;;;24.13;100.00;101226.02;1753809;81;21031;-88
2021/08/13 04:14:52;;;;;;;7.08;3.10;;;;;;;24.78;100.00;101232.73;1753647;81;21617;-88
2021/08/13 04:17:17;;;;;;;5.78;3.52;;;;;;;25.44;94.52;101223.52;1752734;81;20996;-84
2021/08/13 04:19:43;;;;;;;8.20;3.30;;;;;;;25.78;86.79;101220.84;1753727;81;20942;-85
2021/08/13 04:22:09;;;;;;;8.33;3.35;;;;;;;26.16;88.62;101221.02;1753642;81;21535;-87
2021/08/13 04:24:37;;;;;;;6.37;3.17;;;;;;;26.58;78.59;101223.39;1753754;81;20999;-84
2021/08/13 04:27:04;;;;;;;7.60;2.95;;;;;;;26.32;74.53;101223.02;1753168;81;21098;-86
2021/08/13 04:29:30;;;;;;;7.55;3.10;;;;;;;26.15;76.92;101230.47;1753605;80;21058;-85
2021/08/13 04:31:56;;;;;;;12.60;3.00;;;;;;;26.21;75.61;101235.97;1779667;80;21672;-86
2021/08/13 04:34:22;;;;;;;7.87;2.90;;;;;;;26.50;74.99;101231.27;1784582;79;20951;-84
2021/08/13 04:36:48;;;;;;;6.65;2.92;;;;;;;26.42;72.45;101237.16;1784414;80;21179;-86
2021/08/13 04:39:14;;;;;;;6.97;3.20;;;;;;;26.13;72.09;101238.30;1784642;80;21080;-86
2021/08/13 04:41:41;;;;;;;6.15;2.95;;;;;;;25.85;73.92;101234.67;1784584;80;20974;-86
2021/08/13 04:44:07;;;;;;;13.22;3.58;;;;;;;25.83;73.90;101239.98;1784640;79;20995;-86
2021/08/13 04:46:33;;;;;;;5.05;3.12;;;;;;;25.97;74.93;101231.33;1784480;79;20947;-87
2021/08/13 04:48:59;;;;;;;6.53;2.98;;;;;;;26.49;74.26;101233.23;1784507;80;20983;-85
2021/08/13 04:51:25;;;;;;;6.00;3.02;;;;;;;26.99;71.25;101236.53;1783464;80;21128;-84
2021/08/13 04:53:51;;;;;;;5.10;2.77;;;;;;;27.59;68.59;101238.64;1782673;79;20856;-86
2021/08/13 04:56:17;;;;;;;6.10;2.87;;;;;;;28.18;64.72;101234.58;1779698;80;21010;-84
2021/08/13 04:58:42;;;;;;;4.97;2.85;;;;;;;28.05;62.99;101242.23;1779745;80;21013;-84
2021/08/13 05:01:08;;;;;;;6.42;3.33;;;;;;;27.99;61.98;101245.88;1778728;80;21606;-87
2021/08/13 05:03:34;;;;;;;4.97;2.77;;;;;;;28.12;61.79;101252.66;1778651;80;21039;-86
2021/08/13 05:06:00;;;;;;;9.43;3.12;;;;;;;28.50;59.41;101249.12;1778702;80;20908;-87
2021/08/13 05:08:26;;;;;;;12.15;2.72;;;;;;;28.41;58.28;101250.73;1778832;80;20860;-88
2021/08/13 05:10:51;;;;;;;7.35;2.90;;;;;;;28.38;58.81;101247.86;1778990;80;20857;-86
2021/08/13 05:13:18;;;;;;;8.45;2.95;;;;;;;28.58;58.80;101249.48;1778739;80;21593;-85
2021/08/13 05:15:44;;;;;;;7.25;3.00;;;;;;;28.64;57.06;101255.53;1775641;80;21059;-91
2021/08/13 05:18:10;;;;;;;6.20;2.72;;;;;;;28.54;56.50;101256.94;1769558;80;20880;-87
2021/08/13 05:20:36;;;;;;;14.15;3.75;;;;;;;28.97;56.46;101254.38;1770090;81;21707;-86
2021/08/13 05:23:01;;;;;;;7.25;2.95;;;;;;;29.19;55.06;101252.00;1769808;81;20927;-86
2021/08/13 05:25:27;;;;;;;5.62;3.02;;;;;;;29.52;53.22;101255.50;1758228;81;20974;-86
2021/08/13 05:27:58;;;;;;;8.00;3.33;;;;;;;29.87;51.54;101254.45;1759063;81;21973;-86
2021/08/13 05:30:24;;;;;;;7.90;3.22;;;;;;;29.90;50.31;101257.07;1741845;82;21047;-83
2021/08/13 05:32:52;;;;;;;6.33;3.12;;;;;;;29.88;50.11;101259.65;1758406;81;21585;-87
2021/08/13 05:35:18;;;;;;;6.22;3.05;;;;;;;30.36;50.14;101254.13;1758603;81;21501;-89
2021/08/13 05:37:45;;;;;;;3.98;2.65;;;;;;;31.28;48.66;101254.86;1712447;83;20896;-86
2021/08/13 05:40:14;;;;;;;6.33;3.02;;;;;;;31.68;46.00;101254.78;1693408;84;21100;-87
2021/08/13 05:42:40;;;;;;;6.87;3.20;;;;;;;32.21;46.28;101254.06;1639113;87;21085;-85
2021/08/13 05:45:08;;;;;;;12.68;3.20;;;;;;;32.76;43.63;101253.86;1639089;87;21090;-85
2021/08/13 05:47:38;;;;;;;5.75;3.45;;;;;;;33.05;42.84;101252.53;1631911;87;21344;-87
2021/08/13 05:50:02;;;;;;;6.22;3.27;;;;;;;33.42;41.03;101263.30;1634600;86;21619;-86
2021/08/13 05:52:28;;;;;;;8.18;3.52;;;;;;;33.51;38.74;101253.11;1658813;86;21252;-85
2021/08/13 05:54:54;;;;;;;10.58;3.55;;;;;;;33.40;38.63;101256.70;1693429;83;20908;-85
2021/08/13 05:57:20;;;;;;;7.62;2.92;;;;;;;33.97;38.65;101264.19;1659203;86;21651;-85
2021/08/13 05:59:46;;;;;;;5.15;3.05;;;;;;;34.65;37.05;101261.16;1635203;87;20914;-86
2021/08/13 06:04:45;;;;;;;6.33;3.90;;;;;;;35.16;35.64;101256.79;1580400;90;21062;-84
2021/08/13 06:07:11;;;;;;;4.15;3.00;;;;;;;35.49;34.73;101252.47;1579036;90;21142;-86
2021/08/13 06:09:37;;;;;;;4.58;3.50;;;;;;;35.25;34.61;101261.31;1575634;90;20963;-85
2021/08/13 06:12:03;;;;;;;6.65;3.12;;;;;;;35.22;34.21;101258.55;1579118;90;21016;-84
2021/08/13 06:14:29;;;;;;;6.37;3.40;;;;;;;35.46;34.18;101255.31;1579158;90;21146;-85
2021/08/13 06:16:58;;;;;;;11.12;3.92;;;;;;;35.68;34.19;101247.49;1579144;90;21138;-86
2021/08/13 06:19:23;;;;;;;4.15;2.92;;;;;;;36.04;33.61;101248.53;1578426;90;21110;-86
2021/08/13 06:21:49;;;;;;;4.72;3.25;;;;;;;36.78;33.26;101245.30;1575646;90;20900;-84
2021/08/13 06:24:15;;;;;;;6.35;3.60;;;;;;;36.99;31.48;101246.97;1579109;90;21135;-85
2021/08/13 06:26:41;;;;;;;8.43;3.33;;;;;;;35.84;31.12;101249.73;1579005;90;21711;-88
2021/08/13 06:29:06;;;;;;;8.98;3.72;;;;;;;35.24;32.44;101254.13;1578969;90;21107;-84
2021/08/13 06:31:34;;;;;;;7.72;3.92;;;;;;;34.98;32.29;101254.72;1580179;89;20900;-85
2021/08/13 06:34:00;;;;;;;8.73;3.58;;;;;;;34.93;32.73;101264.95;1605937;89;21110;-85
2021/08/13 06:36:26;;;;;;;8.93;3.70;;;;;;;34.81;32.64;101262.03;1602840;89;20914;-82
2021/08/13 06:38:52;;;;;;;10.03;3.60;;;;;;;34.61;33.05;101267.97;1588665;90;20918;-87
2021/08/13 06:41:20;;;;;;;8.80;3.30;;;;;;;34.80;32.98;101262.64;1588749;90;21978;-85
2021/08/13 06:43:45;;;;;;;8.63;3.27;;;;;;;35.10;32.50;101268.86;1588840;90;21080;-83
2021/08/13 06:46:11;;;;;;;6.95;3.80;;;;;;;34.77;32.28;101262.06;1588456;90;20989;-86
2021/08/13 06:48:37;;;;;;;6.83;4.00;;;;;;;34.06;33.34;101264.61;1588554;90;21068;-84
2021/08/13 06:51:04;;;;;;;8.53;3.45;;;;;;;33.68;34.21;101268.48;1615945;87;20918;-86
2021/08/13 06:53:30;;;;;;;5.95;3.60;;;;;;;33.48;33.66;101261.70;1689335;84;21292;-86
2021/08/13 06:55:56;;;;;;;5.90;3.45;;;;;;;32.91;34.14;101261.05;1688972;85;21505;-86
2021/08/13 06:58:22;;;;;;;9.70;3.58;;;;;;;32.53;35.03;101263.97;1689447;85;21025;-86
2021/08/13 07:00:48;;;;;;;10.18;3.50;;;;;;;32.21;35.40;101263.25;1694653;83;20894;-86
2021/08/13 07:03:14;;;;;;;10.20;3.67;;;;;;;31.98;36.64;101271.11;1700252;83;20973;-89
2021/08/13 07:05:40;;;;;;;6.60;3.62;;;;;;;32.14;36.54;101275.76;1728746;83;21029;-85
2021/08/13 07:08:13;;;;;;;7.85;3.47;;;;;;;32.69;36.89;101270.00;1700039;83;21009;-82
2021/08/13 07:10:39;;;;;;;7.45;3.80;;;;;;;33.12;36.04;101270.10;1701435;83;21037;-86
2021/08/13 07:13:06;;;;;;;10.53;3.50;;;;;;;33.08;35.65;101272.08;1758844;81;20975;-88
2021/08/13 07:15:32;;;;;;;8.43;4.28;;;;;;;33.08;35.32;101277.66;1718882;82;20940;-86
2021/08/13 07:17:58;;;;;;;8.00;3.33;;;;;;;33.40;35.42;101283.86;1748095;82;21071;-85
2021/08/13 07:20:24;;;;;;;6.20;3.40;;;;;;;33.48;34.89;101289.05;1747952;82;21023;-85
2021/08/13 07:22:52;;;;;;;8.23;3.70;;;;;;;33.06;35.14;101287.63;1748111;82;20880;-88
2021/08/13 07:25:18;;;;;;;5.85;3.40;;;;;;;32.46;35.24;101289.08;1750797;79;21070;-85
2021/08/13 07:27:44;;;;;;;8.90;3.55;;;;;;;32.21;35.78;101294.51;1748296;80;21653;-84
2021/08/13 07:30:11;;;;;;;6.60;3.20;;;;;;;32.54;35.86;101292.89;1778927;80;21429;-85
2021/08/13 07:32:37;;;;;;;5.50;2.87;;;;;;;32.97;35.92;101301.38;1773647;80;21757;-86
2021/08/13 07:35:04;;;;;;;10.63;3.37;;;;;;;32.83;34.82;101295.77;1778818;80;21057;-86
2021/08/13 07:37:30;;;;;;;6.53;2.80;;;;;;;32.68;35.11;101290.75;1778783;80;20966;-83
2021/08/13 07:39:56;;;;;;;9.73;3.45;;;;;;;32.26;34.39;101292.14;1775304;79;21517;-85
2021/08/13 07:42:26;;;;;;;10.80;3.17;;;;;;;31.55;35.76;101288.92;1748695;79;20947;-84
2021/08/13 07:44:53;;;;;;;6.28;3.42;;;;;;;31.26;36.65;101296.22;1743500;82;21478;-86
2021/08/13 07:47:19;;;;;;;9.03;3.30;;;;;;;31.18;36.84;101291.19;1748277;81;21521;-85
2021/08/13 07:49:45;;;;;;;6.95;3.40;;;;;;;31.16;37.24;101299.91;1748320;81;20904;-85
2021/08/13 07:52:11;;;;;;;7.50;3.17;;;;;;;31.00;36.65;101297.95;1748072;82;20991;-83
2021/08/13 07:54:37;;;;;;;7.95;3.02;;;;;;;30.84;37.23;101300.20;1756110;80;21037;-86
2021/08/13 07:57:04;;;;;;;15.23;3.67;;;;;;;30.61;36.94;101291.36;1764720;81;21018;-84
2021/08/13 07:59:30;;;;;;;9.15;3.25;;;;;;;30.38;37.79;101294.27;1769125;80;21053;-85
2021/08/13 08:01:56;;;;;;;8.78;3.33;;;;;;;30.53;39.43;101300.80;1777943;80;21019;-81
2021/08/13 08:04:21;;;;;;;5.90;3.52;;;;;;;31.11;38.38;101300.26;1764585;81;20877;-85
2021/08/13 08:06:47;;;;;;;7.17;3.10;;;;;;;31.27;37.94;101295.84;1764391;81;21944;-83
2021/08/13 08:09:13;;;;;;;11.88;3.22;;;;;;;31.44;37.96;101295.80;1764584;81;20909;-84
2021/08/13 08:11:39;;;;;;;7.65;3.47;;;;;;;31.82;37.79;101286.70;1736686;81;20872;-86
2021/08/13 08:14:08;;;;;;;7.22;3.85;;;;;;;32.04;37.28;101287.67;1764592;81;22202;-84
2021/08/13 08:16:33;;;;;;;5.80;3.12;;;;;;;32.55;35.62;101288.11;1764105;81;21000;-85
2021/08/13 08:18:59;;;;;;;7.42;3.05;;;;;;;33.18;35.42;101290.03;1764618;81;21881;-84
2021/08/13 08:21:25;;;;;;;6.45;2.87;;;;;;;33.65;35.46;101282.45;1764324;81;20964;-84
2021/08/13 08:23:53;;;;;;;6.85;2.77;;;;;;;33.88;33.95;101277.80;1764824;81;21047;-87
2021/08/13 08:26:19;;;;;;;6.75;2.62;;;;;;;33.82;33.70;101291.41;1765239;81;21055;-88
2021/08/13 08:28:45;;;;;;;6.30;3.15;;;;;;;33.75;33.77;101286.45;1764463;81;21465;-84
2021/08/13 08:31:13;;;;;;;7.83;2.92;;;;;;;33.58;33.38;101290.25;1764172;81;21022;-82
2021/08/13 08:33:38;;;;;;;5.65;3.00;;;;;;;33.41;33.38;101285.44;1764477;81;21000;-84
2021/08/13 08:36:05;;;;;;;7.40;3.05;;;;;;;33.54;33.11;101289.47;1764251;80;20908;-91
2021/08/13 08:38:31;;;;;;;6.85;2.90;;;;;;;33.84;33.03;101289.61;1760046;81;21075;-84
2021/08/13 08:41:04;;;;;;;13.28;3.20;;;;;;;34.28;32.03;101287.70;1764478;81;21048;-83
2021/08/13 08:43:31;;;;;;;5.92;2.87;;;;;;;34.61;31.70;101289.76;1761537;80;21163;-85
2021/08/13 08:45:58;;;;;;;7.33;3.40;;;;;;;35.18;31.48;101278.78;1764314;81;21011;-85
2021/08/13 08:48:33;;;;;;;11.70;2.98;;;;;;;35.34;30.35;101283.87;1764064;80;21054;-82
2021/08/13 08:51:00;;;;;;;10.78;4.10;;;;;;;34.86;30.14;101281.22;1764620;81;21009;-86
2021/08/13 08:53:29;;;;;;;9.85;4.00;;;;;;;34.71;30.65;101280.52;1764149;81;20996;-81
2021/08/13 08:55:56;;;;;;;8.25;4.03;;;;;;;34.75;30.51;101270.69;1784745;78;21131;-86
2021/08/13 08:58:24;;;;;;;6.30;3.42;;;;;;;35.01;30.29;101276.30;1793391;80;21009;-84
2021/08/13 09:00:51;;;;;;;9.85;4.30;;;;;;;35.09;30.47;101272.86;1789186;80;21017;-85
2021/08/13 09:03:21;;;;;;;8.25;3.67;;;;;;;34.93;30.59;101283.16;1793302;80;21026;-85
2021/08/13 09:05:49;;;;;;;8.35;4.35;;;;;;;34.65;31.00;101285.53;1767002;80;21569;-85
2021/08/13 09:08:16;;;;;;;9.68;3.87;;;;;;;34.80;31.07;101278.05;1793208;80;21110;-85
2021/08/13 09:10:45;;;;;;;15.20;3.72;;;;;;;35.09;30.82;101281.27;1793444;80;20970;-85
2021/08/13 09:13:12;;;;;;;10.05;3.50;;;;;;;34.77;30.07;101283.07;1793380;80;21006;-85
2021/08/13 09:15:41;;;;;;;5.47;3.12;;;;;;;34.44;31.03;101286.42;1793367;80;20982;-86
2021/08/13 09:18:21;;;;;;;10.30;3.35;;;;;;;34.38;29.79;101282.64;1793538;80;21038;-84
2021/08/13 09:20:56;;;;;;;7.35;3.58;;;;;;;34.29;30.50;101288.48;1793480;80;21149;-86
2021/08/13 09:23:39;;;;;;;8.98;3.25;;;;;;;34.10;30.08;101282.17;1793415;80;20977;-88
2021/08/13 09:26:17;;;;;;;6.85;3.35;;;;;;;33.75;30.61;101284.44;1793408;80;21537;-88
2021/08/13 09:28:50;;;;;;;10.20;3.77;;;;;;;33.30;31.29;101295.25;1727406;83;21043;-86
2021/08/13 09:31:34;;;;;;;10.35;3.60;;;;;;;33.00;31.02;101289.45;1730776;82;21326;-85
2021/08/13 09:34:10;;;;;;;7.72;3.33;;;;;;;32.33;31.21;101279.64;1730498;83;21121;-84
2021/08/13 09:36:43;;;;;;;12.07;3.47;;;;;;;31.94;31.87;101287.80;1730804;81;21073;-85
2021/08/13 09:39:11;;;;;;;13.40;4.42;;;;;;;31.80;32.61;101279.34;1639779;87;21528;-86
2021/08/13 09:41:46;;;;;;;9.00;3.98;;;;;;;31.68;33.43;101277.08;1639715;87;21523;-83
2021/08/13 09:44:13;;;;;;;9.73;3.42;;;;;;;31.93;33.68;101280.64;1613583;89;21597;-84
2021/08/13 09:46:57;;;;;;;9.53;3.62;;;;;;;32.29;33.56;101279.41;1592424;89;21180;-86
2021/08/13 09:49:23;;;;;;;5.20;2.62;;;;;;;32.43;32.49;101291.23;1613046;89;21501;-86
2021/08/13 09:51:49;;;;;;;9.15;3.40;;;;;;;32.18;32.70;101288.32;1613643;89;21039;-85
2021/08/13 09:54:15;;;;;;;7.87;3.37;;;;;;;32.10;32.57;101293.08;1611926;87;21043;-86
2021/08/13 09:56:42;;;;;;;10.50;3.45;;;;;;;31.91;32.83;101288.58;1595271;90;21015;-87
2021/08/13 09:59:15;;;;;;;11.93;3.40;;;;;;;31.45;33.10;101288.45;1595318;90;21187;-89
2021/08/13 10:01:44;;;;;;;10.15;3.15;;;;;;;31.07;33.91;101296.66;1574747;90;21111;-85
2021/08/13 10:04:12;;;;;;;9.40;3.62;;;;;;;30.97;34.75;101298.16;1592298;90;21126;-87
2021/08/13 10:06:39;;;;;;;6.28;3.02;;;;;;;30.83;34.35;101291.05;1608885;89;21128;-86
2021/08/13 10:09:06;;;;;;;8.13;3.12;;;;;;;30.86;35.54;101287.50;1613572;89;21587;-91
2021/08/13 10:11:35;;;;;;;7.33;2.98;;;;;;;31.15;35.44;101288.58;1612985;89;21834;-86
2021/08/13 10:14:03;;;;;;;6.67;3.40;;;;;;;31.42;34.65;101285.65;1612762;89;21353;-85
2021/08/13 10:16:29;;;;;;;10.30;2.95;;;;;;;31.67;34.21;101284.42;1641280;85;21502;-86
2021/08/13 10:19:01;;;;;;;6.95;3.30;;;;;;;31.97;33.26;101290.41;1674158;85;21061;-86
2021/08/13 10:21:30;;;;;;;10.20;2.70;;;;;;;32.08;33.51;101286.48;1638259;87;21029;-84
2021/08/13 10:23:56;;;;;;;7.75;3.00;;;;;;;32.08;33.51;101286.48;1638296;86;21870;-88
2021/08/13 10:26:24;;;;;;;6.92;2.92;;;;;;;32.15;33.85;101295.51;1615761;87;21107;-81
2021/08/13 10:28:52;;;;;;;6.42;3.12;;;;;;;32.54;32.69;101290.10;1637991;87;21067;-85
2021/08/13 10:31:20;;;;;;;9.30;3.05;;;;;;;32.84;32.73;101288.98;1638428;87;21048;-86
2021/08/13 10:33:49;;;;;;;10.70;2.67;;;;;;;32.79;31.87;101291.55;1657020;84;21010;-86
2021/08/13 10:36:19;;;;;;;9.90;3.72;;;;;;;32.50;32.24;101290.70;1697627;84;21194;-92
2021/08/13 10:38:49;;;;;;;7.25;3.92;;;;;;;32.37;31.85;101285.22;1697746;83;21065;-85
2021/08/13 10:41:22;;;;;;;8.60;3.33;;;;;;;32.49;31.92;101286.89;1697598;83;21140;-88
2021/08/13 10:43:52;;;;;;;12.28;3.12;;;;;;;32.58;32.35;101295.09;1698057;84;21454;-88
2021/08/13 10:46:20;;;;;;;8.45;3.60;;;;;;;32.49;32.28;101299.45;1697923;84;21025;-84
2021/08/13 10:48:51;;;;;;;10.78;3.27;;;;;;;32.21;32.07;101309.28;1697495;84;21286;-80
2021/08/13 10:51:32;;;;;;;9.25;3.00;;;;;;;32.07;32.10;101298.05;1699004;82;21534;-86
2021/08/13 10:54:19;;;;;;;7.35;3.12;;;;;;;31.89;32.33;101310.47;1697614;83;21031;-82
2021/08/13 10:56:48;;;;;;;10.18;3.45;;;;;;;31.53;33.05;101303.22;1697914;84;21072;-85
2021/08/13 10:59:36;;;;;;;7.62;3.15;;;;;;;31.32;33.41;101301.64;1639466;87;21108;-85
2021/08/13 11:02:16;;;;;;;9.60;2.70;;;;;;;31.18;33.05;101305.91;1562046;91;21236;-84
2021/08/13 11:04:47;;;;;;;10.63;2.92;;;;;;;31.18;33.93;101307.30;1562131;91;21460;-85
2021/08/13 11:07:13;;;;;;;6.33;3.02;;;;;;;31.08;33.45;101310.77;1495130;96;21101;-86
2021/08/13 11:09:41;;;;;;;5.70;2.95;;;;;;;30.89;33.34;101313.78;1495195;96;21578;-84
2021/08/13 11:12:15;;;;;;;7.05;3.12;;;;;;;30.90;33.94;101311.19;1495258;96;21185;-80
2021/08/13 11:14:55;;;;;;;6.30;2.70;;;;;;;30.76;34.05;101317.37;1474444;97;21359;-84
2021/08/13 11:17:44;;;;;;;8.98;2.65;;;;;;;30.79;34.50;101316.63;1474530;97;21144;-84
2021/08/13 11:20:13;;;;;;;6.35;2.42;;;;;;;30.85;33.65;101311.53;1474645;97;21102;-87
2021/08/13 11:22:41;;;;;;;7.47;3.27;;;;;;;30.83;32.92;101309.14;1447463;99;21058;-81
2021/08/13 11:25:11;;;;;;;6.28;2.90;;;;;;;30.75;33.78;101315.17;1447679;99;21096;-82
2021/08/13 11:27:37;;;;;;;13.75;2.65;;;;;;;30.79;33.17;101311.06;1426991;100;21993;-82
2021/08/13 11:30:07;;;;;;;7.62;3.10;;;;;;;30.68;33.48;101312.33;1426983;100;21210;-85
2021/08/13 11:32:36;;;;;;;6.95;3.10;;;;;;;30.61;33.56;101319.78;1424171;100;21134;-85